sensor_id;sensor_type;location;lat;lon;timestamp;P1;durP1;ratioP1;P2;durP2;ratioP2
10045;SDS011;5063;50.878;4.742;2024-01-15T00:02:20;26.50;;;13.67;;
10045;SDS011;5063;50.878;4.742;2024-01-15T00:04:46;25.27;;;14.33;;
10045;SDS011;5063;50.878;4.742;2024-01-15T00:07:11;25.00;;;13.47;;
10045;SDS011;5063;50.878;4.742;2024-01-15T00:09:37;24.13;;;14.30;;
10045;SDS011;5063;50.878;4.742;2024-01-15T00:12:03;27.93;;;13.17;;
10045;SDS011;5063;50.878;4.742;2024-01-15T00:14:29;27.17;;;15.20;;
10045;SDS011;5063;50.878;4.742;2024-01-15T00:16:55;27.40;;;13.10;;
10045;SDS011;5063;50.878;4.742;2024-01-15T00:19:21;23.23;;;12.20;;
10045;SDS011;5063;50.878;4.742;2024-01-15T00:21:47;22.77;;;13.53;;
10045;SDS011;5063;50.878;4.742;2024-01-15T00:24:13;25.00;;;13.03;;
10045;SDS011;5063;50.878;4.742;2024-01-15T00:26:39;25.17;;;12.57;;
10045;SDS011;5063;50.878;4.742;2024-01-15T00:29:06;25.30;;;12.27;;
10045;SDS011;5063;50.878;4.742;2024-01-15T00:31:33;21.93;;;11.73;;
10045;SDS011;5063;50.878;4.742;2024-01-15T00:33:58;21.57;;;12.23;;
10045;SDS011;5063;50.878;4.742;2024-01-15T00:36:24;23.97;;;12.43;;
10045;SDS011;5063;50.878;4.742;2024-01-15T00:38:50;23.60;;;12.47;;
10045;SDS011;5063;50.878;4.742;2024-01-15T00:41:16;23.97;;;12.27;;
10045;SDS011;5063;50.878;4.742;2024-01-15T00:43:43;23.93;;;12.10;;
10045;SDS011;5063;50.878;4.742;2024-01-15T00:46:10;17.70;;;10.23;;
10045;SDS011;5063;50.878;4.742;2024-01-15T00:48:36;19.73;;;11.20;;
10045;SDS011;5063;50.878;4.742;2024-01-15T00:51:01;21.27;;;11.40;;
10045;SDS011;5063;50.878;4.742;2024-01-15T00:53:27;21.13;;;11.13;;
10045;SDS011;5063;50.878;4.742;2024-01-15T00:55:53;19.67;;;11.63;;
10045;SDS011;5063;50.878;4.742;2024-01-15T00:58:19;20.03;;;11.87;;
10045;SDS011;5063;50.878;4.742;2024-01-15T01:00:44;19.27;;;10.80;;
10045;SDS011;5063;50.878;4.742;2024-01-15T01:03:10;20.27;;;10.80;;
10045;SDS011;5063;50.878;4.742;2024-01-15T01:05:36;21.20;;;10.60;;
10045;SDS011;5063;50.878;4.742;2024-01-15T01:08:02;18.87;;;10.37;;
10045;SDS011;5063;50.878;4.742;2024-01-15T01:10:28;22.33;;;10.50;;
10045;SDS011;5063;50.878;4.742;2024-01-15T01:12:54;19.13;;;10.50;;
10045;SDS011;5063;50.878;4.742;2024-01-15T01:15:21;18.70;;;10.23;;
10045;SDS011;5063;50.878;4.742;2024-01-15T01:17:47;20.33;;;10.10;;
10045;SDS011;5063;50.878;4.742;2024-01-15T01:20:13;16.23;;;10.00;;
10045;SDS011;5063;50.878;4.742;2024-01-15T01:22:40;17.40;;;9.03;;
10045;SDS011;5063;50.878;4.742;2024-01-15T01:25:06;15.47;;;9.53;;
10045;SDS011;5063;50.878;4.742;2024-01-15T01:27:32;14.23;;;10.03;;
10045;SDS011;5063;50.878;4.742;2024-01-15T01:29:57;17.87;;;10.10;;
10045;SDS011;5063;50.878;4.742;2024-01-15T01:32:23;15.63;;;9.53;;
10045;SDS011;5063;50.878;4.742;2024-01-15T01:34:49;15.47;;;9.03;;
10045;SDS011;5063;50.878;4.742;2024-01-15T01:37:15;13.73;;;8.43;;
10045;SDS011;5063;50.878;4.742;2024-01-15T01:39:40;14.20;;;8.43;;
10045;SDS011;5063;50.878;4.742;2024-01-15T01:42:06;14.30;;;7.80;;
10045;SDS011;5063;50.878;4.742;2024-01-15T01:44:32;12.50;;;8.30;;
10045;SDS011;5063;50.878;4.742;2024-01-15T01:46:58;14.23;;;8.13;;
10045;SDS011;5063;50.878;4.742;2024-01-15T01:49:25;14.57;;;8.47;;
10045;SDS011;5063;50.878;4.742;2024-01-15T01:51:52;13.87;;;8.10;;
10045;SDS011;5063;50.878;4.742;2024-01-15T01:54:19;12.57;;;7.93;;
10045;SDS011;5063;50.878;4.742;2024-01-15T01:56:45;14.53;;;8.20;;
10045;SDS011;5063;50.878;4.742;2024-01-15T01:59:13;13.90;;;7.53;;
10045;SDS011;5063;50.878;4.742;2024-01-15T02:01:39;13.63;;;7.53;;
10045;SDS011;5063;50.878;4.742;2024-01-15T02:04:06;8.60;;;6.53;;
10045;SDS011;5063;50.878;4.742;2024-01-15T02:06:31;12.37;;;6.90;;
10045;SDS011;5063;50.878;4.742;2024-01-15T02:08:58;16.53;;;7.23;;
10045;SDS011;5063;50.878;4.742;2024-01-15T02:11:24;15.23;;;7.33;;
10045;SDS011;5063;50.878;4.742;2024-01-15T02:13:50;10.47;;;7.63;;
10045;SDS011;5063;50.878;4.742;2024-01-15T02:16:16;10.30;;;7.07;;
10045;SDS011;5063;50.878;4.742;2024-01-15T02:18:43;12.40;;;6.90;;
10045;SDS011;5063;50.878;4.742;2024-01-15T02:21:09;11.83;;;7.10;;
10045;SDS011;5063;50.878;4.742;2024-01-15T02:23:37;13.33;;;7.33;;
10045;SDS011;5063;50.878;4.742;2024-01-15T02:26:03;10.57;;;6.77;;
10045;SDS011;5063;50.878;4.742;2024-01-15T02:28:30;10.13;;;6.97;;
10045;SDS011;5063;50.878;4.742;2024-01-15T02:30:57;10.27;;;6.63;;
10045;SDS011;5063;50.878;4.742;2024-01-15T02:33:23;10.20;;;6.67;;
10045;SDS011;5063;50.878;4.742;2024-01-15T02:35:49;11.37;;;7.00;;
10045;SDS011;5063;50.878;4.742;2024-01-15T02:38:15;9.67;;;6.63;;
10045;SDS011;5063;50.878;4.742;2024-01-15T02:40:42;9.47;;;6.33;;
10045;SDS011;5063;50.878;4.742;2024-01-15T02:43:09;9.37;;;6.43;;
10045;SDS011;5063;50.878;4.742;2024-01-15T02:45:35;9.17;;;6.37;;
10045;SDS011;5063;50.878;4.742;2024-01-15T02:48:00;10.90;;;6.17;;
10045;SDS011;5063;50.878;4.742;2024-01-15T02:50:26;9.80;;;6.17;;
10045;SDS011;5063;50.878;4.742;2024-01-15T02:52:52;9.87;;;6.13;;
10045;SDS011;5063;50.878;4.742;2024-01-15T02:55:18;7.77;;;5.27;;
10045;SDS011;5063;50.878;4.742;2024-01-15T02:57:43;9.30;;;5.57;;
10045;SDS011;5063;50.878;4.742;2024-01-15T03:00:09;9.13;;;5.47;;
10045;SDS011;5063;50.878;4.742;2024-01-15T03:02:38;7.97;;;5.63;;
10045;SDS011;5063;50.878;4.742;2024-01-15T03:05:08;8.20;;;5.37;;
10045;SDS011;5063;50.878;4.742;2024-01-15T03:07:34;8.67;;;5.43;;
10045;SDS011;5063;50.878;4.742;2024-01-15T03:09:59;8.80;;;5.47;;
10045;SDS011;5063;50.878;4.742;2024-01-15T03:12:25;8.73;;;5.33;;
10045;SDS011;5063;50.878;4.742;2024-01-15T03:14:51;8.20;;;5.27;;
10045;SDS011;5063;50.878;4.742;2024-01-15T03:17:17;7.60;;;5.13;;
10045;SDS011;5063;50.878;4.742;2024-01-15T03:19:42;7.70;;;5.23;;
10045;SDS011;5063;50.878;4.742;2024-01-15T03:22:08;9.73;;;5.40;;
10045;SDS011;5063;50.878;4.742;2024-01-15T03:24:34;8.70;;;5.40;;
10045;SDS011;5063;50.878;4.742;2024-01-15T03:27:00;9.40;;;5.27;;
10045;SDS011;5063;50.878;4.742;2024-01-15T03:29:26;7.93;;;4.97;;
10045;SDS011;5063;50.878;4.742;2024-01-15T03:31:52;7.50;;;5.47;;
10045;SDS011;5063;50.878;4.742;2024-01-15T03:34:18;11.90;;;5.23;;
10045;SDS011;5063;50.878;4.742;2024-01-15T03:36:43;10.00;;;6.33;;
10045;SDS011;5063;50.878;4.742;2024-01-15T03:39:09;9.57;;;5.13;;
10045;SDS011;5063;50.878;4.742;2024-01-15T03:41:35;8.03;;;5.50;;
10045;SDS011;5063;50.878;4.742;2024-01-15T03:44:01;12.33;;;5.17;;
10045;SDS011;5063;50.878;4.742;2024-01-15T03:46:27;11.63;;;5.40;;
10045;SDS011;5063;50.878;4.742;2024-01-15T03:48:52;10.53;;;5.13;;
10045;SDS011;5063;50.878;4.742;2024-01-15T03:51:18;8.30;;;5.27;;
10045;SDS011;5063;50.878;4.742;2024-01-15T03:53:44;9.33;;;5.70;;
10045;SDS011;5063;50.878;4.742;2024-01-15T03:56:10;12.33;;;5.87;;
10045;SDS011;5063;50.878;4.742;2024-01-15T03:58:36;8.93;;;5.87;;
10045;SDS011;5063;50.878;4.742;2024-01-15T04:01:01;13.87;;;6.87;;
10045;SDS011;5063;50.878;4.742;2024-01-15T04:03:27;8.73;;;6.10;;
10045;SDS011;5063;50.878;4.742;2024-01-15T04:05:53;11.07;;;7.00;;
10045;SDS011;5063;50.878;4.742;2024-01-15T04:08:19;11.80;;;6.70;;
10045;SDS011;5063;50.878;4.742;2024-01-15T04:10:44;17.83;;;7.67;;
10045;SDS011;5063;50.878;4.742;2024-01-15T04:13:10;11.20;;;7.53;;
10045;SDS011;5063;50.878;4.742;2024-01-15T04:15:36;13.00;;;8.33;;
10045;SDS011;5063;50.878;4.742;2024-01-15T04:18:03;11.43;;;8.23;;
10045;SDS011;5063;50.878;4.742;2024-01-15T04:20:29;14.77;;;8.60;;
10045;SDS011;5063;50.878;4.742;2024-01-15T04:22:54;14.50;;;8.67;;
10045;SDS011;5063;50.878;4.742;2024-01-15T04:25:20;15.47;;;9.23;;
10045;SDS011;5063;50.878;4.742;2024-01-15T04:27:46;16.50;;;10.17;;
10045;SDS011;5063;50.878;4.742;2024-01-15T04:30:11;15.80;;;9.80;;
10045;SDS011;5063;50.878;4.742;2024-01-15T04:32:38;16.57;;;9.63;;
10045;SDS011;5063;50.878;4.742;2024-01-15T04:35:03;22.00;;;10.33;;
10045;SDS011;5063;50.878;4.742;2024-01-15T04:37:29;18.17;;;10.10;;
10045;SDS011;5063;50.878;4.742;2024-01-15T04:39:55;17.87;;;10.87;;
10045;SDS011;5063;50.878;4.742;2024-01-15T04:42:22;18.13;;;11.07;;
10045;SDS011;5063;50.878;4.742;2024-01-15T04:44:48;19.03;;;11.70;;
10045;SDS011;5063;50.878;4.742;2024-01-15T04:47:14;21.87;;;12.30;;
10045;SDS011;5063;50.878;4.742;2024-01-15T04:49:40;17.70;;;10.83;;
10045;SDS011;5063;50.878;4.742;2024-01-15T04:52:05;15.80;;;10.43;;
10045;SDS011;5063;50.878;4.742;2024-01-15T04:54:31;19.57;;;10.87;;
10045;SDS011;5063;50.878;4.742;2024-01-15T04:56:57;20.13;;;11.47;;
10045;SDS011;5063;50.878;4.742;2024-01-15T04:59:23;18.60;;;11.83;;
10045;SDS011;5063;50.878;4.742;2024-01-15T05:01:48;22.70;;;11.87;;
10045;SDS011;5063;50.878;4.742;2024-01-15T05:04:14;20.27;;;11.77;;
10045;SDS011;5063;50.878;4.742;2024-01-15T05:06:40;19.63;;;11.13;;
10045;SDS011;5063;50.878;4.742;2024-01-15T05:09:06;16.83;;;11.37;;
10045;SDS011;5063;50.878;4.742;2024-01-15T05:11:32;17.97;;;10.70;;
10045;SDS011;5063;50.878;4.742;2024-01-15T05:13:58;26.63;;;12.60;;
10045;SDS011;5063;50.878;4.742;2024-01-15T05:16:23;23.77;;;12.43;;
10045;SDS011;5063;50.878;4.742;2024-01-15T05:18:49;20.80;;;12.20;;
10045;SDS011;5063;50.878;4.742;2024-01-15T05:21:15;20.53;;;11.10;;
10045;SDS011;5063;50.878;4.742;2024-01-15T05:23:41;24.63;;;11.83;;
10045;SDS011;5063;50.878;4.742;2024-01-15T05:26:06;15.30;;;10.03;;
10045;SDS011;5063;50.878;4.742;2024-01-15T05:28:34;19.17;;;10.83;;
10045;SDS011;5063;50.878;4.742;2024-01-15T05:30:59;17.07;;;9.63;;
10045;SDS011;5063;50.878;4.742;2024-01-15T05:33:25;18.53;;;9.03;;
10045;SDS011;5063;50.878;4.742;2024-01-15T05:35:51;17.17;;;9.67;;
10045;SDS011;5063;50.878;4.742;2024-01-15T05:38:18;17.50;;;9.93;;
10045;SDS011;5063;50.878;4.742;2024-01-15T05:40:44;20.67;;;9.57;;
10045;SDS011;5063;50.878;4.742;2024-01-15T05:43:09;17.67;;;10.20;;
10045;SDS011;5063;50.878;4.742;2024-01-15T05:45:35;18.93;;;9.80;;
10045;SDS011;5063;50.878;4.742;2024-01-15T05:48:03;12.87;;;8.00;;
10045;SDS011;5063;50.878;4.742;2024-01-15T05:50:29;13.63;;;8.47;;
10045;SDS011;5063;50.878;4.742;2024-01-15T05:52:54;15.07;;;8.73;;
10045;SDS011;5063;50.878;4.742;2024-01-15T05:55:20;14.17;;;8.10;;
10045;SDS011;5063;50.878;4.742;2024-01-15T05:57:46;14.67;;;8.03;;
10045;SDS011;5063;50.878;4.742;2024-01-15T06:00:11;12.43;;;7.50;;
10045;SDS011;5063;50.878;4.742;2024-01-15T06:02:38;11.90;;;7.10;;
10045;SDS011;5063;50.878;4.742;2024-01-15T06:05:04;13.93;;;6.77;;
10045;SDS011;5063;50.878;4.742;2024-01-15T06:07:31;11.80;;;6.47;;
10045;SDS011;5063;50.878;4.742;2024-01-15T06:09:57;12.53;;;6.10;;
10045;SDS011;5063;50.878;4.742;2024-01-15T06:12:23;8.73;;;6.00;;
10045;SDS011;5063;50.878;4.742;2024-01-15T06:14:48;11.90;;;6.17;;
10045;SDS011;5063;50.878;4.742;2024-01-15T06:17:14;11.77;;;6.00;;
10045;SDS011;5063;50.878;4.742;2024-01-15T06:19:40;7.57;;;4.80;;
10045;SDS011;5063;50.878;4.742;2024-01-15T06:22:05;7.00;;;5.60;;
10045;SDS011;5063;50.878;4.742;2024-01-15T06:24:31;11.80;;;4.90;;
10045;SDS011;5063;50.878;4.742;2024-01-15T06:26:57;12.33;;;4.93;;
10045;SDS011;5063;50.878;4.742;2024-01-15T06:29:25;9.67;;;5.73;;
10045;SDS011;5063;50.878;4.742;2024-01-15T06:31:52;8.87;;;4.53;;
10045;SDS011;5063;50.878;4.742;2024-01-15T06:34:17;8.23;;;4.47;;
10045;SDS011;5063;50.878;4.742;2024-01-15T06:36:43;7.00;;;4.17;;
10045;SDS011;5063;50.878;4.742;2024-01-15T06:39:09;6.00;;;4.10;;
10045;SDS011;5063;50.878;4.742;2024-01-15T06:41:35;9.27;;;4.37;;
10045;SDS011;5063;50.878;4.742;2024-01-15T06:44:08;4.53;;;3.80;;
10045;SDS011;5063;50.878;4.742;2024-01-15T06:46:35;7.67;;;4.47;;
10045;SDS011;5063;50.878;4.742;2024-01-15T06:49:01;7.37;;;4.03;;
10045;SDS011;5063;50.878;4.742;2024-01-15T06:51:26;9.07;;;3.87;;
10045;SDS011;5063;50.878;4.742;2024-01-15T06:53:52;8.63;;;4.13;;
10045;SDS011;5063;50.878;4.742;2024-01-15T06:56:18;5.53;;;2.93;;
10045;SDS011;5063;50.878;4.742;2024-01-15T06:58:44;5.70;;;3.43;;
10045;SDS011;5063;50.878;4.742;2024-01-15T07:01:09;6.97;;;3.30;;
10045;SDS011;5063;50.878;4.742;2024-01-15T07:03:35;7.20;;;3.37;;
10045;SDS011;5063;50.878;4.742;2024-01-15T07:06:01;5.83;;;2.87;;
10045;SDS011;5063;50.878;4.742;2024-01-15T07:08:26;6.73;;;2.80;;
10045;SDS011;5063;50.878;4.742;2024-01-15T07:10:52;4.17;;;3.10;;
10045;SDS011;5063;50.878;4.742;2024-01-15T07:13:18;3.23;;;2.50;;
10045;SDS011;5063;50.878;4.742;2024-01-15T07:15:43;4.03;;;3.63;;
10045;SDS011;5063;50.878;4.742;2024-01-15T07:18:09;2.97;;;2.53;;
10045;SDS011;5063;50.878;4.742;2024-01-15T07:20:35;4.23;;;3.10;;
10045;SDS011;5063;50.878;4.742;2024-01-15T07:23:00;5.50;;;3.23;;
10045;SDS011;5063;50.878;4.742;2024-01-15T07:25:27;4.27;;;2.40;;
10045;SDS011;5063;50.878;4.742;2024-01-15T07:27:53;6.63;;;2.67;;
10045;SDS011;5063;50.878;4.742;2024-01-15T07:30:19;3.43;;;2.97;;
10045;SDS011;5063;50.878;4.742;2024-01-15T07:32:47;10.17;;;3.00;;
10045;SDS011;5063;50.878;4.742;2024-01-15T07:35:13;4.43;;;2.47;;
10045;SDS011;5063;50.878;4.742;2024-01-15T07:37:40;6.40;;;2.73;;
10045;SDS011;5063;50.878;4.742;2024-01-15T07:40:06;4.40;;;2.97;;
10045;SDS011;5063;50.878;4.742;2024-01-15T07:42:33;3.77;;;2.97;;
10045;SDS011;5063;50.878;4.742;2024-01-15T07:45:00;10.67;;;3.70;;
10045;SDS011;5063;50.878;4.742;2024-01-15T07:47:26;5.23;;;2.90;;
10045;SDS011;5063;50.878;4.742;2024-01-15T07:49:53;7.67;;;3.07;;
10045;SDS011;5063;50.878;4.742;2024-01-15T07:52:19;3.93;;;3.30;;
10045;SDS011;5063;50.878;4.742;2024-01-15T07:54:45;7.63;;;3.60;;
10045;SDS011;5063;50.878;4.742;2024-01-15T07:57:10;8.10;;;3.30;;
10045;SDS011;5063;50.878;4.742;2024-01-15T07:59:36;9.80;;;3.53;;
10045;SDS011;5063;50.878;4.742;2024-01-15T08:02:02;6.63;;;3.60;;
10045;SDS011;5063;50.878;4.742;2024-01-15T08:04:28;4.50;;;3.37;;
10045;SDS011;5063;50.878;4.742;2024-01-15T08:06:54;7.90;;;3.80;;
10045;SDS011;5063;50.878;4.742;2024-01-15T08:09:22;13.43;;;4.07;;
10045;SDS011;5063;50.878;4.742;2024-01-15T08:11:47;6.03;;;3.63;;
10045;SDS011;5063;50.878;4.742;2024-01-15T08:14:14;6.10;;;3.77;;
10045;SDS011;5063;50.878;4.742;2024-01-15T08:16:40;5.33;;;3.37;;
10045;SDS011;5063;50.878;4.742;2024-01-15T08:19:06;5.23;;;3.73;;
10045;SDS011;5063;50.878;4.742;2024-01-15T08:21:32;6.63;;;3.77;;
10045;SDS011;5063;50.878;4.742;2024-01-15T08:23:58;7.63;;;4.13;;
10045;SDS011;5063;50.878;4.742;2024-01-15T08:26:25;5.90;;;3.70;;
10045;SDS011;5063;50.878;4.742;2024-01-15T08:28:51;10.80;;;4.37;;
10045;SDS011;5063;50.878;4.742;2024-01-15T08:31:17;8.07;;;3.93;;
10045;SDS011;5063;50.878;4.742;2024-01-15T08:33:42;7.63;;;4.57;;
10045;SDS011;5063;50.878;4.742;2024-01-15T08:36:11;9.47;;;4.90;;
10045;SDS011;5063;50.878;4.742;2024-01-15T08:38:38;13.27;;;4.60;;
10045;SDS011;5063;50.878;4.742;2024-01-15T08:41:04;7.20;;;4.87;;
10045;SDS011;5063;50.878;4.742;2024-01-15T08:43:29;13.40;;;4.57;;
10045;SDS011;5063;50.878;4.742;2024-01-15T08:45:58;6.93;;;4.30;;
10045;SDS011;5063;50.878;4.742;2024-01-15T08:48:24;6.67;;;3.50;;
10045;SDS011;5063;50.878;4.742;2024-01-15T08:50:52;6.53;;;3.30;;
10045;SDS011;5063;50.878;4.742;2024-01-15T08:53:18;10.77;;;4.60;;
10045;SDS011;5063;50.878;4.742;2024-01-15T08:55:44;7.70;;;3.17;;
10045;SDS011;5063;50.878;4.742;2024-01-15T08:58:10;9.57;;;3.13;;
10045;SDS011;5063;50.878;4.742;2024-01-15T09:00:36;6.93;;;3.23;;
10045;SDS011;5063;50.878;4.742;2024-01-15T09:03:02;7.60;;;3.27;;
10045;SDS011;5063;50.878;4.742;2024-01-15T09:05:28;6.30;;;2.80;;
10045;SDS011;5063;50.878;4.742;2024-01-15T09:07:54;5.50;;;2.57;;
10045;SDS011;5063;50.878;4.742;2024-01-15T09:10:20;7.23;;;3.13;;
10045;SDS011;5063;50.878;4.742;2024-01-15T09:12:46;4.73;;;2.47;;
10045;SDS011;5063;50.878;4.742;2024-01-15T09:15:11;7.67;;;2.60;;
10045;SDS011;5063;50.878;4.742;2024-01-15T09:17:37;7.83;;;2.73;;
10045;SDS011;5063;50.878;4.742;2024-01-15T09:20:03;7.03;;;2.37;;
10045;SDS011;5063;50.878;4.742;2024-01-15T09:22:30;11.87;;;2.73;;
10045;SDS011;5063;50.878;4.742;2024-01-15T09:24:56;7.90;;;2.50;;
10045;SDS011;5063;50.878;4.742;2024-01-15T09:27:23;4.33;;;2.13;;
10045;SDS011;5063;50.878;4.742;2024-01-15T09:29:51;7.27;;;2.77;;
10045;SDS011;5063;50.878;4.742;2024-01-15T09:32:17;9.00;;;2.47;;
10045;SDS011;5063;50.878;4.742;2024-01-15T09:34:43;6.80;;;2.10;;
10045;SDS011;5063;50.878;4.742;2024-01-15T09:37:11;6.47;;;2.30;;
10045;SDS011;5063;50.878;4.742;2024-01-15T09:39:37;4.93;;;2.47;;
10045;SDS011;5063;50.878;4.742;2024-01-15T09:42:03;11.90;;;2.60;;
10045;SDS011;5063;50.878;4.742;2024-01-15T09:44:30;6.50;;;2.13;;
10045;SDS011;5063;50.878;4.742;2024-01-15T09:46:57;4.70;;;2.10;;
10045;SDS011;5063;50.878;4.742;2024-01-15T09:49:23;11.27;;;1.93;;
10045;SDS011;5063;50.878;4.742;2024-01-15T09:51:49;9.97;;;2.20;;
10045;SDS011;5063;50.878;4.742;2024-01-15T09:54:15;7.17;;;2.50;;
10045;SDS011;5063;50.878;4.742;2024-01-15T09:56:51;12.73;;;2.50;;
10045;SDS011;5063;50.878;4.742;2024-01-15T09:59:20;9.23;;;2.60;;
10045;SDS011;5063;50.878;4.742;2024-01-15T10:01:47;5.87;;;1.97;;
10045;SDS011;5063;50.878;4.742;2024-01-15T10:04:16;9.00;;;2.33;;
10045;SDS011;5063;50.878;4.742;2024-01-15T10:06:43;3.40;;;1.90;;
10045;SDS011;5063;50.878;4.742;2024-01-15T10:09:11;10.17;;;2.40;;
10045;SDS011;5063;50.878;4.742;2024-01-15T10:11:39;10.03;;;2.33;;
10045;SDS011;5063;50.878;4.742;2024-01-15T10:14:09;7.43;;;2.00;;
10045;SDS011;5063;50.878;4.742;2024-01-15T10:16:38;7.50;;;2.47;;
10045;SDS011;5063;50.878;4.742;2024-01-15T10:19:04;7.73;;;2.17;;
10045;SDS011;5063;50.878;4.742;2024-01-15T10:21:31;7.60;;;2.73;;
10045;SDS011;5063;50.878;4.742;2024-01-15T10:24:00;7.77;;;2.30;;
10045;SDS011;5063;50.878;4.742;2024-01-15T10:26:26;3.63;;;1.30;;
10045;SDS011;5063;50.878;4.742;2024-01-15T10:28:52;5.00;;;1.90;;
10045;SDS011;5063;50.878;4.742;2024-01-15T10:31:17;9.67;;;2.10;;
10045;SDS011;5063;50.878;4.742;2024-01-15T10:33:44;8.70;;;2.20;;
10045;SDS011;5063;50.878;4.742;2024-01-15T10:36:10;9.43;;;2.13;;
10045;SDS011;5063;50.878;4.742;2024-01-15T10:38:36;3.70;;;1.90;;
10045;SDS011;5063;50.878;4.742;2024-01-15T10:41:02;4.27;;;1.70;;
10045;SDS011;5063;50.878;4.742;2024-01-15T10:43:28;11.90;;;2.13;;
10045;SDS011;5063;50.878;4.742;2024-01-15T10:45:53;12.47;;;2.33;;
10045;SDS011;5063;50.878;4.742;2024-01-15T10:48:19;5.30;;;1.80;;
10045;SDS011;5063;50.878;4.742;2024-01-15T10:50:45;4.60;;;1.60;;
10045;SDS011;5063;50.878;4.742;2024-01-15T10:53:12;4.20;;;1.83;;
10045;SDS011;5063;50.878;4.742;2024-01-15T10:55:39;5.10;;;2.50;;
10045;SDS011;5063;50.878;4.742;2024-01-15T10:58:07;8.97;;;2.03;;
10045;SDS011;5063;50.878;4.742;2024-01-15T11:00:37;6.90;;;2.37;;
10045;SDS011;5063;50.878;4.742;2024-01-15T11:03:04;6.77;;;1.83;;
10045;SDS011;5063;50.878;4.742;2024-01-15T11:05:38;4.30;;;1.40;;
10045;SDS011;5063;50.878;4.742;2024-01-15T11:08:07;3.57;;;1.50;;
10045;SDS011;5063;50.878;4.742;2024-01-15T11:10:44;3.37;;;1.60;;
10045;SDS011;5063;50.878;4.742;2024-01-15T11:16:09;6.00;;;1.87;;
10045;SDS011;5063;50.878;4.742;2024-01-15T11:23:46;5.50;;;2.30;;
10045;SDS011;5063;50.878;4.742;2024-01-15T11:29:09;9.00;;;2.40;;
10045;SDS011;5063;50.878;4.742;2024-01-15T11:34:21;10.03;;;1.90;;
10045;SDS011;5063;50.878;4.742;2024-01-15T11:37:07;6.43;;;2.17;;
10045;SDS011;5063;50.878;4.742;2024-01-15T11:41:58;7.90;;;1.77;;
10045;SDS011;5063;50.878;4.742;2024-01-15T11:44:26;3.07;;;1.30;;
10045;SDS011;5063;50.878;4.742;2024-01-15T11:52:36;11.93;;;2.10;;
10045;SDS011;5063;50.878;4.742;2024-01-15T11:55:19;12.00;;;1.77;;
10045;SDS011;5063;50.878;4.742;2024-01-15T11:57:52;4.37;;;1.53;;
10045;SDS011;5063;50.878;4.742;2024-01-15T12:00:21;7.47;;;2.03;;
10045;SDS011;5063;50.878;4.742;2024-01-15T12:02:48;7.10;;;1.80;;
10045;SDS011;5063;50.878;4.742;2024-01-15T12:05:16;7.50;;;2.40;;
10045;SDS011;5063;50.878;4.742;2024-01-15T12:07:43;4.03;;;1.70;;
10045;SDS011;5063;50.878;4.742;2024-01-15T12:10:12;14.60;;;2.60;;
10045;SDS011;5063;50.878;4.742;2024-01-15T12:15:30;3.27;;;1.57;;
10045;SDS011;5063;50.878;4.742;2024-01-15T12:17:57;10.13;;;1.63;;
10045;SDS011;5063;50.878;4.742;2024-01-15T12:20:25;4.90;;;2.07;;
10045;SDS011;5063;50.878;4.742;2024-01-15T12:22:52;5.93;;;1.63;;
10045;SDS011;5063;50.878;4.742;2024-01-15T12:25:18;4.03;;;1.50;;
10045;SDS011;5063;50.878;4.742;2024-01-15T12:27:44;5.70;;;1.93;;
10045;SDS011;5063;50.878;4.742;2024-01-15T12:30:11;6.93;;;1.90;;
10045;SDS011;5063;50.878;4.742;2024-01-15T12:32:40;6.73;;;1.87;;
10045;SDS011;5063;50.878;4.742;2024-01-15T12:35:07;7.20;;;2.37;;
10045;SDS011;5063;50.878;4.742;2024-01-15T12:37:37;10.70;;;2.23;;
10045;SDS011;5063;50.878;4.742;2024-01-15T12:40:05;6.30;;;1.60;;
10045;SDS011;5063;50.878;4.742;2024-01-15T12:42:37;3.40;;;1.60;;
10045;SDS011;5063;50.878;4.742;2024-01-15T12:45:08;3.97;;;1.57;;
10045;SDS011;5063;50.878;4.742;2024-01-15T12:47:35;4.60;;;1.50;;
10045;SDS011;5063;50.878;4.742;2024-01-15T12:50:01;3.00;;;1.73;;
10045;SDS011;5063;50.878;4.742;2024-01-15T12:52:28;4.60;;;1.77;;
10045;SDS011;5063;50.878;4.742;2024-01-15T12:54:54;3.30;;;1.40;;
10045;SDS011;5063;50.878;4.742;2024-01-15T12:57:20;5.47;;;1.90;;
10045;SDS011;5063;50.878;4.742;2024-01-15T12:59:46;5.40;;;1.90;;
10045;SDS011;5063;50.878;4.742;2024-01-15T13:02:15;2.13;;;1.40;;
10045;SDS011;5063;50.878;4.742;2024-01-15T13:04:41;11.47;;;2.30;;
10045;SDS011;5063;50.878;4.742;2024-01-15T13:07:07;4.27;;;2.20;;
10045;SDS011;5063;50.878;4.742;2024-01-15T13:09:33;5.80;;;2.00;;
10045;SDS011;5063;50.878;4.742;2024-01-15T13:12:01;4.10;;;1.80;;
10045;SDS011;5063;50.878;4.742;2024-01-15T13:14:27;4.83;;;1.50;;
10045;SDS011;5063;50.878;4.742;2024-01-15T13:16:54;2.60;;;1.83;;
10045;SDS011;5063;50.878;4.742;2024-01-15T13:19:20;2.57;;;1.20;;
10045;SDS011;5063;50.878;4.742;2024-01-15T13:21:48;2.30;;;1.50;;
10045;SDS011;5063;50.878;4.742;2024-01-15T13:24:18;5.73;;;1.53;;
10045;SDS011;5063;50.878;4.742;2024-01-15T13:26:45;3.27;;;1.20;;
10045;SDS011;5063;50.878;4.742;2024-01-15T13:29:11;8.60;;;1.70;;
10045;SDS011;5063;50.878;4.742;2024-01-15T13:31:37;2.80;;;1.37;;
10045;SDS011;5063;50.878;4.742;2024-01-15T13:34:03;3.00;;;1.03;;
10045;SDS011;5063;50.878;4.742;2024-01-15T13:36:29;4.07;;;1.70;;
10045;SDS011;5063;50.878;4.742;2024-01-15T13:38:54;4.70;;;1.73;;
10045;SDS011;5063;50.878;4.742;2024-01-15T13:41:21;1.83;;;1.30;;
10045;SDS011;5063;50.878;4.742;2024-01-15T13:43:50;4.87;;;1.40;;
10045;SDS011;5063;50.878;4.742;2024-01-15T13:46:19;4.27;;;1.17;;
10045;SDS011;5063;50.878;4.742;2024-01-15T13:48:47;1.80;;;1.07;;
10045;SDS011;5063;50.878;4.742;2024-01-15T13:51:12;1.97;;;1.40;;
10045;SDS011;5063;50.878;4.742;2024-01-15T13:53:38;1.43;;;1.10;;
10045;SDS011;5063;50.878;4.742;2024-01-15T13:56:05;1.30;;;1.20;;
10045;SDS011;5063;50.878;4.742;2024-01-15T13:58:31;1.50;;;1.40;;
10045;SDS011;5063;50.878;4.742;2024-01-15T14:01:00;2.87;;;1.03;;
10045;SDS011;5063;50.878;4.742;2024-01-15T14:03:26;2.57;;;1.40;;
10045;SDS011;5063;50.878;4.742;2024-01-15T14:05:52;5.70;;;2.23;;
10045;SDS011;5063;50.878;4.742;2024-01-15T14:08:17;1.50;;;1.40;;
10045;SDS011;5063;50.878;4.742;2024-01-15T14:10:43;3.20;;;1.57;;
10045;SDS011;5063;50.878;4.742;2024-01-15T14:13:10;4.43;;;1.53;;
10045;SDS011;5063;50.878;4.742;2024-01-15T14:15:35;3.03;;;1.53;;
10045;SDS011;5063;50.878;4.742;2024-01-15T14:18:02;1.30;;;1.20;;
10045;SDS011;5063;50.878;4.742;2024-01-15T14:20:28;2.07;;;1.80;;
10045;SDS011;5063;50.878;4.742;2024-01-15T14:22:54;1.53;;;1.20;;
10045;SDS011;5063;50.878;4.742;2024-01-15T14:25:20;2.73;;;1.73;;
10045;SDS011;5063;50.878;4.742;2024-01-15T14:27:46;4.27;;;1.33;;
10045;SDS011;5063;50.878;4.742;2024-01-15T14:30:12;1.93;;;1.00;;
10045;SDS011;5063;50.878;4.742;2024-01-15T14:32:40;2.33;;;1.40;;
10045;SDS011;5063;50.878;4.742;2024-01-15T14:35:09;3.07;;;1.20;;
10045;SDS011;5063;50.878;4.742;2024-01-15T14:37:38;3.07;;;1.10;;
10045;SDS011;5063;50.878;4.742;2024-01-15T14:40:05;2.57;;;1.53;;
10045;SDS011;5063;50.878;4.742;2024-01-15T14:42:32;1.90;;;1.27;;
10045;SDS011;5063;50.878;4.742;2024-01-15T14:44:59;1.83;;;1.37;;
10045;SDS011;5063;50.878;4.742;2024-01-15T14:47:24;0.93;;;0.93;;
10045;SDS011;5063;50.878;4.742;2024-01-15T14:49:52;1.37;;;1.07;;
10045;SDS011;5063;50.878;4.742;2024-01-15T14:52:17;3.17;;;1.20;;
10045;SDS011;5063;50.878;4.742;2024-01-15T14:54:43;1.53;;;1.20;;
10045;SDS011;5063;50.878;4.742;2024-01-15T14:57:09;3.37;;;1.30;;
10045;SDS011;5063;50.878;4.742;2024-01-15T14:59:35;3.03;;;1.27;;
10045;SDS011;5063;50.878;4.742;2024-01-15T15:02:00;2.47;;;1.87;;
10045;SDS011;5063;50.878;4.742;2024-01-15T15:04:26;4.27;;;1.97;;
10045;SDS011;5063;50.878;4.742;2024-01-15T15:06:53;1.73;;;1.63;;
10045;SDS011;5063;50.878;4.742;2024-01-15T15:09:19;1.50;;;1.40;;
10045;SDS011;5063;50.878;4.742;2024-01-15T15:11:45;4.33;;;1.77;;
10045;SDS011;5063;50.878;4.742;2024-01-15T15:14:10;3.50;;;1.90;;